createdAt,value
2022-08-18T00:04:53.260Z,21.50
2022-08-18T00:10:02.262Z,21.40
2022-08-18T00:15:10.341Z,21.30
2022-08-18T00:20:18.827Z,21.30
2022-08-18T00:25:45.599Z,21.20
2022-08-18T00:30:53.880Z,21.10
2022-08-18T00:35:57.637Z,21.10
2022-08-18T00:41:03.866Z,21.10
2022-08-18T00:46:19.505Z,21.10
2022-08-18T00:51:30.696Z,21.10
2022-08-18T00:56:46.613Z,21.00
2022-08-18T01:01:55.955Z,20.90
2022-08-18T01:07:10.005Z,20.90
2022-08-18T01:12:43.979Z,20.90
2022-08-18T01:17:40.872Z,20.90
2022-08-18T01:22:51.780Z,20.90
2022-08-18T01:28:00.827Z,20.80
2022-08-18T01:33:06.167Z,20.80
2022-08-18T01:38:13.740Z,20.70
2022-08-18T01:43:19.467Z,20.70
2022-08-18T01:48:24.606Z,20.70
2022-08-18T01:53:29.808Z,20.70
2022-08-18T01:58:37.365Z,20.60
2022-08-18T02:03:46.210Z,20.50
2022-08-18T02:08:53.689Z,20.50
2022-08-18T02:13:58.313Z,20.50
2022-08-18T02:19:03.860Z,20.50
2022-08-18T02:24:08.990Z,20.40
2022-08-18T02:29:14.863Z,20.30
2022-08-18T02:34:20.422Z,20.30
2022-08-18T02:39:25.432Z,20.20
2022-08-18T02:44:32.272Z,20.10
2022-08-18T02:49:37.469Z,20.10
2022-08-18T02:54:42.728Z,20.00
2022-08-18T02:59:48.458Z,20.00
2022-08-18T03:04:54.206Z,19.90
2022-08-18T03:10:03.081Z,19.90
2022-08-18T03:15:06.742Z,19.90
2022-08-18T03:20:12.558Z,19.90
2022-08-18T03:25:17.822Z,19.80
2022-08-18T03:30:24.038Z,19.90
2022-08-18T03:35:30.722Z,19.90
2022-08-18T03:40:36.902Z,20.00
2022-08-18T03:45:42.181Z,19.90
2022-08-18T03:50:48.935Z,19.90
2022-08-18T03:55:54.157Z,19.90
2022-08-18T04:00:59.534Z,19.90
2022-08-18T04:06:07.762Z,19.90
2022-08-18T04:11:14.831Z,19.90
2022-08-18T04:16:20.081Z,19.90
2022-08-18T04:21:25.597Z,20.00
2022-08-18T04:26:31.896Z,20.00
2022-08-18T04:31:38.497Z,20.10
2022-08-18T04:36:45.142Z,20.20
2022-08-18T04:41:50.352Z,20.20
2022-08-18T04:46:56.353Z,20.40
2022-08-18T04:52:34.333Z,20.50
2022-08-18T04:57:26.999Z,20.60
2022-08-18T05:02:33.844Z,20.70
2022-08-18T05:07:41.983Z,20.70
2022-08-18T05:12:49.692Z,20.70
2022-08-18T05:17:56.766Z,20.80
2022-08-18T05:23:04.164Z,20.80
2022-08-18T05:28:10.254Z,20.90
2022-08-18T05:33:15.579Z,21.10
2022-08-18T05:38:40.124Z,21.20
2022-08-18T05:43:51.397Z,21.40
2022-08-18T05:48:54.245Z,21.50
2022-08-18T05:54:18.816Z,21.80
2022-08-18T05:59:30.031Z,21.90
2022-08-18T06:04:38.609Z,22.00
2022-08-18T06:09:50.199Z,22.10
2022-08-18T06:15:01.565Z,22.40
2022-08-18T06:20:29.468Z,22.60
2022-08-18T06:26:13.949Z,22.80
2022-08-18T06:31:29.628Z,23.10
2022-08-18T06:37:01.887Z,23.30
2022-08-18T06:42:07.977Z,23.40
2022-08-18T06:47:35.484Z,23.80
2022-08-18T06:52:43.606Z,23.80
2022-08-18T06:58:00.345Z,24.20
2022-08-18T07:03:10.929Z,24.50
2022-08-18T07:08:19.107Z,24.80
2022-08-18T07:13:27.552Z,25.20
2022-08-18T07:18:32.921Z,25.50
2022-08-18T07:23:40.937Z,25.80
2022-08-18T07:28:49.687Z,25.90
2022-08-18T07:34:00.610Z,26.10
2022-08-18T07:39:14.735Z,26.20
2022-08-18T07:44:43.641Z,26.50
2022-08-18T07:50:15.563Z,26.90
2022-08-18T07:55:09.901Z,27.30
2022-08-18T08:00:57.381Z,27.50
2022-08-18T08:05:57.877Z,27.70
2022-08-18T08:11:09.073Z,28.20
2022-08-18T08:16:44.860Z,28.40
2022-08-18T08:21:53.378Z,28.50
2022-08-18T08:27:01.705Z,28.90
2022-08-18T08:32:13.557Z,29.20
2022-08-18T08:37:27.741Z,29.10
2022-08-18T08:42:41.335Z,28.90
2022-08-18T08:48:08.453Z,29.00
2022-08-18T08:53:17.352Z,29.30
2022-08-18T08:58:34.561Z,29.40
2022-08-18T09:03:51.592Z,29.20
2022-08-18T09:09:05.776Z,29.10
2022-08-18T09:14:20.018Z,29.10
2022-08-18T09:19:30.989Z,29.30
2022-08-18T09:24:54.177Z,29.30
2022-08-18T09:30:02.524Z,29.60
2022-08-18T09:35:29.181Z,29.70
2022-08-18T09:41:02.675Z,29.60
2022-08-18T09:46:19.226Z,29.60
2022-08-18T09:51:36.519Z,29.70
2022-08-18T09:56:55.523Z,30.00
2022-08-18T10:02:03.658Z,30.30
2022-08-18T10:07:22.599Z,30.60
2022-08-18T10:12:36.653Z,30.80
2022-08-18T10:17:50.000Z,31.40
2022-08-18T10:22:55.032Z,31.80
2022-08-18T10:28:02.152Z,32.00
2022-08-18T10:33:17.781Z,32.30
2022-08-18T10:38:32.485Z,32.20
2022-08-18T10:49:08.815Z,33.60
2022-08-18T10:54:20.125Z,33.90
2022-08-18T10:59:47.838Z,34.20
2022-08-18T11:10:28.548Z,33.00
2022-08-18T11:15:22.401Z,32.90
2022-08-18T11:20:23.530Z,32.80
2022-08-18T11:25:38.734Z,32.70
2022-08-18T11:30:45.979Z,32.20
2022-08-18T11:36:01.749Z,33.10
2022-08-18T11:41:17.736Z,33.70
2022-08-18T11:46:45.128Z,33.30
2022-08-18T11:52:03.346Z,33.30
2022-08-18T11:57:30.253Z,33.20
2022-08-18T12:02:36.445Z,33.10
2022-08-18T12:07:57.059Z,33.00
2022-08-18T12:12:55.729Z,32.90
2022-08-18T12:18:01.322Z,33.10
2022-08-18T12:23:38.957Z,33.40
2022-08-18T12:28:35.958Z,33.10
2022-08-18T12:33:48.464Z,33.20
2022-08-18T12:38:51.860Z,33.40
2022-08-18T12:43:59.203Z,33.90
2022-08-18T12:49:04.505Z,34.30
2022-08-18T13:16:54.087Z,33.50
2022-08-18T13:21:42.874Z,33.30
2022-08-18T13:26:50.250Z,33.00
2022-08-18T13:31:59.383Z,32.70
2022-08-18T13:37:06.227Z,32.10
2022-08-18T13:42:26.068Z,32.00
2022-08-18T13:47:18.132Z,32.60
2022-08-18T13:52:34.386Z,33.00
2022-08-18T13:57:38.912Z,33.00
2022-08-18T14:02:48.084Z,32.10
2022-08-18T14:07:53.543Z,31.90
2022-08-18T14:13:07.911Z,32.00
2022-08-18T14:18:09.103Z,32.10
2022-08-18T14:23:33.896Z,32.20
2022-08-18T14:28:41.426Z,32.20
2022-08-18T14:33:50.819Z,32.40
2022-08-18T14:38:55.346Z,32.50
2022-08-18T14:44:13.376Z,32.40
2022-08-18T14:49:10.929Z,32.00
2022-08-18T14:54:35.966Z,31.80
2022-08-18T14:59:41.237Z,31.80
2022-08-18T15:04:53.144Z,31.70
2022-08-18T15:10:14.941Z,31.50
2022-08-18T15:15:02.018Z,31.50
2022-08-18T15:20:08.990Z,31.50
2022-08-18T15:25:37.373Z,31.40
2022-08-18T15:30:44.195Z,31.20
2022-08-18T15:35:54.725Z,30.90
2022-08-18T15:41:06.208Z,30.90
2022-08-18T15:46:10.926Z,30.70
2022-08-18T15:51:19.855Z,30.80
2022-08-18T15:56:26.674Z,30.70
2022-08-18T16:01:33.138Z,30.60
2022-08-18T16:06:41.166Z,30.50
2022-08-18T16:11:48.012Z,30.40
2022-08-18T16:16:55.655Z,30.30
2022-08-18T16:22:00.933Z,30.10
2022-08-18T16:27:09.323Z,30.00
2022-08-18T16:32:16.333Z,29.90
2022-08-18T16:37:23.305Z,29.70
2022-08-18T16:42:32.492Z,29.60
2022-08-18T16:47:40.696Z,29.50
2022-08-18T16:52:48.749Z,29.30
2022-08-18T16:58:15.434Z,29.20
2022-08-18T17:03:37.511Z,29.10
2022-08-18T17:10:37.432Z,28.90
2022-08-18T17:15:50.454Z,28.80
2022-08-18T17:20:56.265Z,28.70
2022-08-18T17:26:03.358Z,28.60
2022-08-18T17:31:10.131Z,28.50
2022-08-18T17:36:18.435Z,28.30
2022-08-18T17:41:25.830Z,28.10
2022-08-18T17:46:34.512Z,27.80
2022-08-18T17:51:46.124Z,27.70
2022-08-18T17:57:06.647Z,27.50
2022-08-18T18:02:29.652Z,27.30
2022-08-18T18:07:51.894Z,27.20
2022-08-18T18:13:34.387Z,27.10
2022-08-18T18:18:42.983Z,26.80
2022-08-18T18:23:51.239Z,26.60
2022-08-18T18:29:19.535Z,26.40
2022-08-18T18:34:33.923Z,26.30
2022-08-18T18:39:39.715Z,26.10
2022-08-18T18:44:54.096Z,25.90
2022-08-18T18:50:02.278Z,25.80
2022-08-18T18:55:10.523Z,25.70
2022-08-18T19:00:24.547Z,25.60
2022-08-18T19:05:37.190Z,25.50
2022-08-18T19:11:07.548Z,25.40
2022-08-18T19:16:23.588Z,25.30
2022-08-18T19:22:03.205Z,25.20
2022-08-18T19:26:46.817Z,25.10
2022-08-18T19:32:04.184Z,25.00
2022-08-18T19:37:22.736Z,24.90
2022-08-18T19:42:40.415Z,24.70
2022-08-18T19:47:52.289Z,24.60
2022-08-18T19:53:35.066Z,24.40
2022-08-18T19:59:18.272Z,24.30
2022-08-18T20:04:29.874Z,24.20
2022-08-18T20:10:08.380Z,24.10
2022-08-18T20:15:19.293Z,24.00
2022-08-18T20:20:29.905Z,24.00
2022-08-18T20:25:43.998Z,23.90
2022-08-18T20:31:11.989Z,23.80
2022-08-18T20:36:31.603Z,23.70
2022-08-18T20:41:42.301Z,23.40
2022-08-18T20:46:54.259Z,23.30
2022-08-18T20:52:09.213Z,23.20
2022-08-18T20:57:15.114Z,23.10
2022-08-18T21:02:28.929Z,23.10
2022-08-18T21:07:37.885Z,23.00
2022-08-18T21:12:55.706Z,22.90
2022-08-18T21:18:09.982Z,22.70
2022-08-18T21:23:18.492Z,22.60
2022-08-18T21:28:26.031Z,22.50
2022-08-18T21:33:33.500Z,22.40
2022-08-18T21:38:39.222Z,22.30
2022-08-18T21:43:49.815Z,22.30
2022-08-18T21:48:58.477Z,22.30
2022-08-18T21:54:04.364Z,22.30
2022-08-18T21:59:18.716Z,22.30
2022-08-18T22:04:29.907Z,22.30
2022-08-18T22:09:55.747Z,22.30
2022-08-18T22:15:19.202Z,22.20
2022-08-18T22:20:45.837Z,22.20
2022-08-18T22:25:51.388Z,22.20
2022-08-18T22:30:59.699Z,22.10
2022-08-18T22:36:06.251Z,22.10
2022-08-18T22:41:11.630Z,22.00
2022-08-18T22:46:21.704Z,21.90
2022-08-18T22:51:28.472Z,21.90
2022-08-18T22:56:35.302Z,21.80
2022-08-18T23:01:44.434Z,21.80
2022-08-18T23:06:53.906Z,21.70
2022-08-18T23:12:02.422Z,21.70
2022-08-18T23:17:13.697Z,21.60
2022-08-18T23:22:19.646Z,21.60
2022-08-18T23:27:24.964Z,21.60
2022-08-18T23:32:32.159Z,21.60
2022-08-18T23:37:38.316Z,21.60
2022-08-18T23:42:43.807Z,21.60
2022-08-18T23:47:49.104Z,21.50
2022-08-18T23:53:00.171Z,21.40
2022-08-18T23:58:07.052Z,21.40
